Time;durP1;ratioP1;P1;durP2;ratioP2;P2;SDS_P1;SDS_P2;PMS_P1;PMS_P2;Temp;Humidity;BMP_temperature;BMP_pressure;BME280_temperature;BME280_humidity;BME280_pressure;Samples;Min_cycle;Max_cycle;Signal;HPM_P1;HPM_P2
2021/12/28 00:01:20;;;;;;;;;1.60;1.00;;;;;11.24;81.43;98689.00;5012961;28;45566;-58
2021/12/28 00:03:45;;;;;;;;;0.75;0.75;;;;;11.22;81.25;98679.34;5014505;28;45433;-55
2021/12/28 00:06:11;;;;;;;;;2.75;2.00;;;;;11.28;81.12;98671.97;5014529;28;45366;-54
2021/12/28 00:08:37;;;;;;;;;2.25;1.25;;;;;11.22;81.40;98671.94;5013722;28;45568;-56
2021/12/28 00:11:03;;;;;;;;;1.00;1.00;;;;;11.24;81.29;98671.66;4996522;28;45492;-54
2021/12/28 00:13:30;;;;;;;;;1.00;1.00;;;;;11.20;81.39;98660.41;5014471;28;45408;-54
2021/12/28 00:18:21;;;;;;;;;1.75;1.00;;;;;11.17;81.28;98649.97;5013929;28;45569;-56
2021/12/28 00:20:49;;;;;;;;;1.00;1.00;;;;;11.15;81.78;98637.59;5016652;28;45735;-54
2021/12/28 00:23:24;;;;;;;;;0.20;0.20;;;;;11.16;81.68;98642.00;5016152;28;45418;-54
2021/12/28 00:25:51;;;;;;;;;1.40;1.00;;;;;11.16;81.52;98637.31;5017440;28;45514;-54
2021/12/28 00:28:16;;;;;;;;;0.00;0.00;;;;;11.08;81.69;98626.84;4999932;28;45344;-50
2021/12/28 00:30:42;;;;;;;;;0.50;0.25;;;;;11.01;81.32;98615.28;4999450;28;45518;-55
2021/12/28 00:33:08;;;;;;;;;1.00;1.00;;;;;10.94;81.64;98608.09;5017490;28;45524;-57
2021/12/28 00:35:36;;;;;;;;;0.00;0.00;;;;;11.13;82.12;98632.34;4999843;28;45595;-54
2021/12/28 00:38:03;;;;;;;;;0.00;0.00;;;;;11.14;81.83;98631.25;5017494;28;45300;-54
2021/12/28 00:40:28;;;;;;;;;0.00;0.00;;;;;11.18;81.99;98628.81;5014926;28;46736;-53
2021/12/28 00:42:54;;;;;;;;;1.00;1.00;;;;;11.19;81.51;98633.19;4979697;28;45446;-56
2021/12/28 00:45:20;;;;;;;;;1.00;1.00;;;;;11.01;81.76;98596.91;4997398;28;45431;-56
2021/12/28 00:47:45;;;;;;;;;1.50;0.50;;;;;11.17;81.73;98625.25;4979992;28;45496;-51
2021/12/28 00:50:12;;;;;;;;;2.00;0.50;;;;;11.19;81.91;98634.03;4997452;28;45986;-54
2021/12/28 00:52:37;;;;;;;;;0.00;0.00;;;;;11.01;82.01;98598.81;4997038;28;45330;-57
2021/12/28 00:55:04;;;;;;;;;0.25;0.25;;;;;11.05;82.39;98605.44;4997416;28;45233;-51
2021/12/28 00:57:29;;;;;;;;;1.40;1.40;;;;;11.21;82.10;98637.34;4997377;28;45373;-50
2021/12/28 00:59:55;;;;;;;;;2.00;0.75;;;;;11.24;81.80;98635.97;4997201;28;45767;-55
2021/12/28 01:02:20;;;;;;;;;0.00;0.00;;;;;11.10;81.90;98621.94;4997094;28;45333;-53
2021/12/28 01:04:46;;;;;;;;;1.75;1.00;;;;;11.29;82.10;98644.25;4997274;28;45222;-56
2021/12/28 01:07:11;;;;;;;;;1.00;1.00;;;;;11.16;81.71;98618.09;4997388;28;45297;-58
2021/12/28 01:09:37;;;;;;;;;2.00;1.25;;;;;11.35;82.20;98645.06;4946879;28;48108;-52
2021/12/28 01:12:05;;;;;;;;;2.00;1.00;;;;;11.36;81.95;98644.81;4996771;28;45377;-54
2021/12/28 01:14:31;;;;;;;;;1.00;1.00;;;;;11.25;81.99;98619.25;4995839;28;45452;-55
2021/12/28 01:16:59;;;;;;;;;0.00;0.00;;;;;11.41;81.56;98652.25;4997493;28;45368;-58
2021/12/28 01:19:25;;;;;;;;;0.40;0.40;;;;;11.41;82.16;98657.75;4994322;28;45640;-58
2021/12/28 01:21:50;;;;;;;;;0.00;0.00;;;;;11.44;81.52;98651.72;4996977;28;45424;-55
2021/12/28 01:24:18;;;;;;;;;1.00;0.00;;;;;11.44;81.92;98651.72;4997144;28;45353;-56
2021/12/28 01:26:44;;;;;;;;;1.60;0.00;;;;;11.43;82.02;98647.31;4996973;28;45621;-57
2021/12/28 01:29:09;;;;;;;;;0.00;0.00;;;;;11.46;82.06;98654.19;4995136;28;45425;-54
2021/12/28 01:31:37;;;;;;;;;0.00;0.00;;;;;11.46;82.07;98643.19;4977678;28;45391;-51
2021/12/28 01:34:06;;;;;;;;;0.00;0.00;;;;;11.43;81.95;98650.06;4990947;28;45429;-54
2021/12/28 01:36:31;;;;;;;;;0.00;0.00;;;;;11.48;81.75;98641.84;5002453;28;45388;-51
2021/12/28 01:38:57;;;;;;;;;0.00;0.00;;;;;11.43;81.27;98635.50;5014521;28;47159;-55
2021/12/28 01:41:22;;;;;;;;;0.00;0.00;;;;;11.46;82.18;98654.19;4998234;28;45532;-52
2021/12/28 01:43:55;;;;;;;;;0.00;0.00;;;;;11.41;81.84;98646.75;5016285;28;45420;-54
2021/12/28 01:46:20;;;;;;;;;0.00;0.00;;;;;11.43;81.88;98646.50;5016110;28;45415;-54
2021/12/28 01:48:46;;;;;;;;;1.00;1.00;;;;;11.45;81.96;98652.53;4998147;28;46555;-56
2021/12/28 01:51:17;;;;;;;;;0.00;0.00;;;;;11.24;81.51;98634.06;5014945;28;45263;-57
2021/12/28 01:53:43;;;;;;;;;0.00;0.00;;;;;11.51;81.76;98670.69;5014778;28;45220;-59
2021/12/28 01:56:10;;;;;;;;;0.00;0.00;;;;;11.55;81.59;98676.47;5016414;28;45591;-51
2021/12/28 01:58:36;;;;;;;;;0.00;0.00;;;;;11.58;81.35;98678.69;5015549;28;46182;-52
2021/12/28 02:01:03;;;;;;;;;1.00;0.00;;;;;11.13;81.09;98610.41;5016221;28;45326;-55
2021/12/28 02:03:29;;;;;;;;;0.00;0.00;;;;;11.64;81.17;98689.41;5014781;28;45521;-54
2021/12/28 02:05:54;;;;;;;;;0.00;0.00;;;;;11.68;81.21;98703.44;5014779;28;46057;-53
2021/12/28 02:08:21;;;;;;;;;0.00;0.00;;;;;11.70;80.99;98712.25;5015542;28;46638;-53
2021/12/28 02:10:47;;;;;;;;;0.00;0.00;;;;;11.70;81.49;98720.50;5016047;28;45428;-57
2021/12/28 02:13:14;;;;;;;;;1.00;0.00;;;;;11.75;81.07;98733.44;5014066;28;45763;-52
2021/12/28 02:15:39;;;;;;;;;0.00;0.00;;;;;11.72;80.68;98722.97;5015740;28;45326;-50
2021/12/28 02:18:06;;;;;;;;;0.00;0.00;;;;;11.79;80.85;98732.63;5013868;28;45608;-54
2021/12/28 02:20:32;;;;;;;;;0.00;0.00;;;;;11.80;80.67;98728.78;5014056;28;45404;-57
2021/12/28 02:22:57;;;;;;;;;0.00;0.00;;;;;11.79;80.62;98731.78;5014748;28;45404;-54
2021/12/28 02:25:23;;;;;;;;;0.00;0.00;;;;;11.70;80.45;98728.75;5014865;28;45582;-51
2021/12/28 02:27:48;;;;;;;;;0.00;0.00;;;;;11.75;79.98;98744.44;5016000;28;46335;-53
2021/12/28 02:30:16;;;;;;;;;0.00;0.00;;;;;11.74;80.16;98749.09;5015759;28;45309;-54
2021/12/28 02:32:42;;;;;;;;;0.00;0.00;;;;;11.74;80.21;98757.31;5014409;28;45406;-50
2021/12/28 02:35:10;;;;;;;;;0.00;0.00;;;;;11.71;80.11;98757.88;5014552;28;45221;-51
2021/12/28 02:37:35;;;;;;;;;0.00;0.00;;;;;11.54;79.91;98741.59;4997727;28;48334;-58
2021/12/28 02:40:02;;;;;;;;;0.00;0.00;;;;;11.69;79.92;98759.25;5014063;28;45680;-52
2021/12/28 02:42:27;;;;;;;;;0.00;0.00;;;;;11.72;79.85;98764.19;5002427;28;45391;-50
2021/12/28 02:45:02;;;;;;;;;0.50;0.00;;;;;11.68;80.11;98779.56;4995757;28;45667;-56
2021/12/28 02:47:30;;;;;;;;;0.00;0.00;;;;;11.70;80.11;98786.47;4994326;28;48545;-51
2021/12/28 02:49:56;;;;;;;;;0.80;0.00;;;;;11.46;79.98;98756.66;4995286;28;45344;-55
2021/12/28 02:52:21;;;;;;;;;0.00;0.00;;;;;11.65;79.74;98805.66;4995895;28;45286;-55
2021/12/28 02:54:47;;;;;;;;;0.00;0.00;;;;;11.60;79.77;98813.88;4995901;28;45529;-55
2021/12/28 02:57:13;;;;;;;;;1.00;0.00;;;;;11.49;80.03;98800.06;4993460;28;47477;-54
2021/12/28 02:59:48;;;;;;;;;1.00;0.00;;;;;11.60;79.65;98825.69;4995384;28;45211;-56
2021/12/28 03:02:14;;;;;;;;;1.00;0.00;;;;;11.60;79.80;98820.22;4988423;28;45376;-54
2021/12/28 03:04:40;;;;;;;;;0.00;0.00;;;;;11.46;79.80;98791.53;4992842;28;45401;-53
2021/12/28 03:07:05;;;;;;;;;0.00;0.00;;;;;11.63;79.37;98833.41;4977879;28;45431;-53
2021/12/28 03:09:31;;;;;;;;;0.00;0.00;;;;;11.63;79.30;98838.91;4993663;28;45431;-53
2021/12/28 03:11:56;;;;;;;;;0.00;0.00;;;;;11.64;79.83;98840.53;4995842;28;45321;-53
2021/12/28 03:14:22;;;;;;;;;0.00;0.00;;;;;11.66;79.44;98838.38;4994398;28;45268;-54
2021/12/28 03:16:47;;;;;;;;;1.00;0.00;;;;;11.66;79.18;98843.88;4977914;28;46448;-53
2021/12/28 03:19:13;;;;;;;;;0.50;0.00;;;;;11.68;78.95;98849.09;4993552;28;45863;-52
2021/12/28 03:21:40;;;;;;;;;0.00;0.00;;;;;11.68;79.00;98853.78;4995188;28;45594;-56
2021/12/28 03:24:06;;;;;;;;;0.00;0.00;;;;;11.68;79.44;98848.28;4995364;28;45657;-54
2021/12/28 03:26:32;;;;;;;;;0.60;0.60;;;;;11.66;78.87;98856.78;4977243;28;45409;-50
2021/12/28 03:28:57;;;;;;;;;0.00;0.00;;;;;11.69;78.63;98856.22;4995158;28;45830;-57
2021/12/28 03:31:23;;;;;;;;;2.00;0.00;;;;;11.70;78.67;98855.16;4995161;28;45374;-52
2021/12/28 03:33:49;;;;;;;;;0.00;0.00;;;;;11.70;78.14;98862.56;4977512;28;45382;-52
2021/12/28 03:36:16;;;;;;;;;0.00;0.00;;;;;11.73;78.57;98871.09;4994767;28;46734;-54
2021/12/28 03:38:41;;;;;;;;;1.00;0.00;;;;;11.76;78.31;98870.59;4994609;28;45340;-53
2021/12/28 03:41:08;;;;;;;;;0.00;0.00;;;;;11.65;78.62;98849.63;4995253;28;45376;-49
2021/12/28 03:43:42;;;;;;;;;0.60;0.00;;;;;11.79;78.27;98878.28;5012547;28;45762;-54
2021/12/28 03:46:07;;;;;;;;;1.00;0.00;;;;;11.82;78.03;98876.94;4996954;28;46732;-56
2021/12/28 03:48:33;;;;;;;;;0.00;0.00;;;;;11.83;77.96;98872.25;4963840;28;45285;-55
2021/12/28 03:51:00;;;;;;;;;0.00;0.00;;;;;11.84;77.78;98882.19;4996769;28;45425;-57
2021/12/28 03:53:25;;;;;;;;;0.80;0.00;;;;;11.85;77.79;98881.88;5014898;28;45355;-54
2021/12/28 03:55:51;;;;;;;;;1.00;1.00;;;;;11.86;77.36;98879.97;5016630;28;46583;-51
2021/12/28 03:58:16;;;;;;;;;0.00;0.00;;;;;11.87;77.81;98879.72;5000091;28;45459;-57
2021/12/28 04:00:44;;;;;;;;;0.00;0.00;;;;;11.88;77.44;98870.38;5017764;28;45344;-53
2021/12/28 04:03:10;;;;;;;;;1.20;1.00;;;;;11.90;77.69;98889.34;5017832;28;45340;-50
2021/12/28 04:05:36;;;;;;;;;0.60;0.60;;;;;11.90;77.62;98883.84;5017514;28;46178;-53
2021/12/28 04:08:02;;;;;;;;;0.40;0.00;;;;;11.92;77.53;98895.41;5017717;28;45384;-56
2021/12/28 04:10:38;;;;;;;;;0.00;0.00;;;;;11.91;77.63;98891.00;5017747;28;45309;-52
2021/12/28 04:13:03;;;;;;;;;1.80;0.00;;;;;11.80;77.59;98876.38;4986871;28;45387;-53
2021/12/28 04:15:28;;;;;;;;;0.00;0.00;;;;;11.91;77.74;98888.25;4999355;28;46197;-54
2021/12/28 04:17:54;;;;;;;;;2.00;0.00;;;;;11.88;77.86;98891.53;4999584;28;45381;-55
2021/12/28 04:20:20;;;;;;;;;0.00;0.00;;;;;11.93;77.60;98903.41;4983344;28;45392;-52
2021/12/28 04:22:45;;;;;;;;;0.00;0.00;;;;;11.93;77.70;98891.56;5000143;28;45503;-55
2021/12/28 04:25:12;;;;;;;;;0.00;0.00;;;;;11.96;77.66;98895.69;5017043;28;46085;-57
2021/12/28 04:27:37;;;;;;;;;0.00;0.00;;;;;11.97;77.75;98900.94;4999986;28;45442;-50
2021/12/28 04:30:06;;;;;;;;;0.75;0.00;;;;;11.87;77.44;98896.22;5016419;28;45875;-51
2021/12/28 04:32:31;;;;;;;;;0.00;0.00;;;;;11.98;77.46;98921.00;4999934;28;45319;-49
2021/12/28 04:34:57;;;;;;;;;0.00;0.00;;;;;11.99;77.20;98934.50;4999640;28;45392;-55
2021/12/28 04:37:22;;;;;;;;;0.00;0.00;;;;;12.00;77.56;98922.38;5016266;28;45742;-52
2021/12/28 04:39:48;;;;;;;;;1.00;0.00;;;;;11.96;76.86;98915.78;5017727;28;45337;-53
2021/12/28 04:42:13;;;;;;;;;1.75;0.75;;;;;11.96;77.48;98920.44;5010928;28;45567;-56
2021/12/28 04:44:39;;;;;;;;;0.00;0.00;;;;;12.02;76.77;98935.88;4979584;28;47239;-50
2021/12/28 04:47:04;;;;;;;;;0.00;0.00;;;;;11.50;77.07;98842.13;4997535;28;45409;-51
2021/12/28 04:49:30;;;;;;;;;0.00;0.00;;;;;12.04;76.98;98909.81;4997306;28;45443;-57
2021/12/28 04:51:56;;;;;;;;;0.00;0.00;;;;;12.02;76.66;98911.13;4997530;28;45367;-53
2021/12/28 04:54:22;;;;;;;;;1.00;0.00;;;;;12.06;76.53;98928.75;4997250;28;45738;-50
2021/12/28 04:56:47;;;;;;;;;0.75;0.00;;;;;12.03;76.20;98927.41;4997216;28;45684;-52
2021/12/28 04:59:14;;;;;;;;;0.75;0.00;;;;;12.06;76.11;98924.09;4997324;28;45409;-56
2021/12/28 05:01:39;;;;;;;;;0.40;0.40;;;;;12.04;75.71;98920.81;4997884;28;45337;-55
2021/12/28 05:04:05;;;;;;;;;0.00;0.00;;;;;11.89;76.13;98896.75;4963378;28;45270;-53
2021/12/28 05:06:31;;;;;;;;;0.75;0.75;;;;;12.09;75.98;98946.66;4996872;28;45371;-57
2021/12/28 05:08:57;;;;;;;;;0.20;0.00;;;;;12.06;75.96;98948.00;4997098;28;45449;-54
2021/12/28 05:11:23;;;;;;;;;0.00;0.00;;;;;12.14;75.99;98944.78;4997348;28;45305;-50
2021/12/28 05:13:48;;;;;;;;;1.00;1.00;;;;;12.15;75.92;98940.09;4997117;28;46385;-52
2021/12/28 05:16:15;;;;;;;;;0.00;0.00;;;;;11.98;75.69;98910.00;4996824;28;45423;-53
2021/12/28 05:18:41;;;;;;;;;1.00;0.00;;;;;12.17;75.40;98949.75;4995900;28;45806;-50
2021/12/28 05:21:06;;;;;;;;;0.00;0.00;;;;;12.19;75.58;98968.72;4979469;28;45379;-52
2021/12/28 05:23:32;;;;;;;;;0.00;0.00;;;;;12.20;75.77;98970.38;4978695;28;47142;-52
2021/12/28 05:25:57;;;;;;;;;1.25;0.00;;;;;12.20;75.26;98973.13;4980720;28;45834;-51
2021/12/28 05:28:23;;;;;;;;;1.00;0.00;;;;;12.16;75.02;98969.25;5015513;28;45379;-49
2021/12/28 05:30:49;;;;;;;;;0.00;0.00;;;;;12.21;75.32;98988.53;4997565;28;45371;-55
2021/12/28 05:33:14;;;;;;;;;0.00;0.00;;;;;12.22;75.14;98992.94;5015099;28;46033;-51
2021/12/28 05:35:40;;;;;;;;;2.00;1.25;;;;;12.19;75.01;98985.22;4997332;28;45300;-51
2021/12/28 05:38:05;;;;;;;;;0.75;0.00;;;;;12.23;74.88;98991.03;5015266;28;45376;-55
2021/12/28 05:40:31;;;;;;;;;2.25;0.50;;;;;12.23;74.83;99000.13;5011597;28;45623;-54
2021/12/28 05:42:56;;;;;;;;;2.00;1.00;;;;;12.17;74.99;98985.50;5004965;28;45400;-53
2021/12/28 05:45:22;;;;;;;;;2.00;0.50;;;;;12.25;74.66;98995.19;5014912;28;45299;-54
2021/12/28 05:47:47;;;;;;;;;0.00;0.00;;;;;12.26;74.81;99001.47;5014933;28;45502;-56
2021/12/28 05:50:13;;;;;;;;;0.50;0.00;;;;;12.25;74.20;99008.09;5015052;28;45376;-53
2021/12/28 05:52:38;;;;;;;;;2.00;0.50;;;;;12.23;73.95;98996.53;5014553;28;46028;-55
2021/12/28 05:55:04;;;;;;;;;0.00;0.00;;;;;12.15;73.82;98995.94;5014732;28;45459;-54
2021/12/28 05:57:30;;;;;;;;;1.75;0.75;;;;;12.28;73.93;99010.31;4980182;28;45366;-53
2021/12/28 05:59:56;;;;;;;;;0.00;0.00;;;;;12.03;73.95;98970.53;5014849;28;45548;-55
2021/12/28 06:02:22;;;;;;;;;2.00;0.40;;;;;12.29;73.69;99012.81;4962989;28;46475;-55
2021/12/28 06:04:47;;;;;;;;;0.50;0.00;;;;;12.29;73.78;99018.31;4989603;28;45424;-54
2021/12/28 06:07:13;;;;;;;;;1.00;1.00;;;;;12.30;73.63;99033.72;4994574;28;45619;-54
2021/12/28 06:09:39;;;;;;;;;1.00;1.00;;;;;12.31;73.02;99027.13;5007694;28;45529;-57
2021/12/28 06:12:06;;;;;;;;;2.40;0.60;;;;;12.25;73.07;99025.44;5012574;28;45688;-52
2021/12/28 06:14:32;;;;;;;;;0.60;0.00;;;;;12.28;73.59;99037.81;5012471;28;45369;-52
2021/12/28 06:16:57;;;;;;;;;1.40;1.00;;;;;12.29;73.42;99044.97;5013652;28;45491;-50
2021/12/28 06:19:23;;;;;;;;;2.00;0.00;;;;;12.33;73.07;99057.13;5014496;28;45325;-56
2021/12/28 06:21:49;;;;;;;;;1.00;1.00;;;;;12.32;73.19;99050.78;5007831;28;45630;-56
2021/12/28 06:24:15;;;;;;;;;0.00;0.00;;;;;12.31;72.95;99053.78;4942062;28;1381174;-49
2021/12/28 06:26:40;;;;;;;;;1.25;1.00;;;;;12.30;72.33;99055.72;4995900;28;45347;-54
2021/12/28 06:29:07;;;;;;;;;3.00;1.00;;;;;12.31;72.88;99062.03;4975382;28;45616;-54
2021/12/28 06:31:33;;;;;;;;;2.25;1.25;;;;;12.23;72.76;99057.88;5011901;28;46560;-55
2021/12/28 06:33:59;;;;;;;;;1.40;1.00;;;;;12.26;72.89;99073.00;4995042;28;45492;-48
2021/12/28 06:36:25;;;;;;;;;3.00;0.20;;;;;12.20;73.45;99073.00;5015153;28;45438;-56
2021/12/28 06:38:51;;;;;;;;;1.20;0.00;;;;;12.18;72.87;99088.91;4996995;28;45516;-56
2021/12/28 06:41:17;;;;;;;;;1.00;0.00;;;;;12.16;72.20;99115.00;4997340;28;48178;-54
2021/12/28 06:43:42;;;;;;;;;3.25;1.00;;;;;12.13;72.52;99110.03;5015325;28;45360;-52
2021/12/28 06:46:08;;;;;;;;;0.25;0.25;;;;;12.11;72.64;99104.00;5015306;28;45368;-57
2021/12/28 06:48:33;;;;;;;;;2.00;1.25;;;;;12.07;72.19;99104.50;5015472;28;45293;-51
2021/12/28 06:50:59;;;;;;;;;1.00;1.00;;;;;12.07;72.46;99100.94;5015101;28;45394;-54
2021/12/28 06:53:24;;;;;;;;;2.50;2.25;;;;;12.05;72.63;99112.19;5015507;28;45466;-55
2021/12/28 06:55:50;;;;;;;;;1.00;1.00;;;;;12.05;72.34;99105.84;5015120;28;45376;-53
2021/12/28 06:58:15;;;;;;;;;2.50;1.50;;;;;11.82;72.44;99076.75;5015549;28;45525;-54
2021/12/28 07:00:41;;;;;;;;;0.50;0.50;;;;;12.03;72.48;99105.25;5015030;28;45479;-56
2021/12/28 07:03:07;;;;;;;;;0.00;0.00;;;;;12.03;72.60;99097.88;5009359;28;45488;-55
2021/12/28 07:05:32;;;;;;;;;3.75;1.00;;;;;12.03;72.37;99100.63;4995315;28;45326;-50
2021/12/28 07:07:58;;;;;;;;;0.00;0.00;;;;;12.06;72.47;99108.34;4977782;28;45658;-55
2021/12/28 07:10:23;;;;;;;;;2.75;1.75;;;;;12.09;72.84;99103.41;4995633;28;45898;-56
2021/12/28 07:12:50;;;;;;;;;3.50;2.50;;;;;12.07;72.25;99110.00;4994835;28;45391;-52
2021/12/28 07:15:16;;;;;;;;;1.00;0.60;;;;;12.12;72.02;99106.44;4995389;28;45234;-55
2021/12/28 07:17:42;;;;;;;;;1.80;1.80;;;;;12.07;72.33;99098.19;4995806;28;45532;-52
2021/12/28 07:20:08;;;;;;;;;5.00;2.00;;;;;12.15;70.96;99100.44;4977141;28;45392;-51
2021/12/28 07:22:34;;;;;;;;;1.20;0.00;;;;;12.21;71.32;99104.06;4995132;28;45600;-52
2021/12/28 07:25:00;;;;;;;;;2.75;1.00;;;;;12.20;71.89;99103.25;4994996;28;45613;-54
2021/12/28 07:27:25;;;;;;;;;1.00;1.00;;;;;12.25;71.36;99113.44;4994942;28;45320;-50
2021/12/28 07:29:51;;;;;;;;;2.75;1.00;;;;;12.19;71.62;99109.84;4997598;28;45892;-53
2021/12/28 07:32:16;;;;;;;;;1.50;1.00;;;;;12.28;71.66;99118.41;4992981;28;45472;-56
2021/12/28 07:34:42;;;;;;;;;2.00;2.00;;;;;12.30;71.83;99119.00;5016145;28;45854;-56
2021/12/28 07:37:07;;;;;;;;;1.75;0.50;;;;;12.30;71.27;99112.66;5018236;28;45540;-53
2021/12/28 07:39:33;;;;;;;;;0.25;0.25;;;;;12.31;71.37;99120.66;5018042;28;46666;-53
2021/12/28 07:41:58;;;;;;;;;1.00;0.00;;;;;12.31;71.24;99123.41;5016512;28;45519;-56
2021/12/28 07:44:24;;;;;;;;;0.75;0.75;;;;;12.10;71.12;99103.16;4998825;28;45260;-54
2021/12/28 07:46:50;;;;;;;;;3.00;1.40;;;;;12.30;71.52;99141.00;4998151;28;45257;-51
2021/12/28 07:49:15;;;;;;;;;1.50;1.00;;;;;12.36;71.74;99143.78;4980574;28;46722;-57
2021/12/28 07:51:41;;;;;;;;;4.50;2.00;;;;;12.36;71.21;99155.63;4998312;28;45692;-55
2021/12/28 07:54:06;;;;;;;;;1.00;1.00;;;;;12.39;71.71;99163.34;4980521;28;45395;-52
2021/12/28 07:56:32;;;;;;;;;0.25;0.25;;;;;12.32;71.95;99152.56;4998125;28;45332;-56
2021/12/28 07:58:57;;;;;;;;;1.00;1.00;;;;;12.42;71.57;99167.47;4997682;28;45387;-55
2021/12/28 08:01:23;;;;;;;;;2.00;1.00;;;;;12.43;71.42;99171.91;4997760;28;45289;-50
2021/12/28 08:03:48;;;;;;;;;2.00;2.00;;;;;12.44;71.92;99160.63;4980270;28;45269;-51
2021/12/28 08:06:14;;;;;;;;;4.50;2.00;;;;;12.45;71.84;99181.53;4998131;28;45582;-56
2021/12/28 08:08:39;;;;;;;;;3.50;2.50;;;;;12.45;72.61;99183.50;4980258;28;45451;-52
2021/12/28 08:11:05;;;;;;;;;0.25;0.25;;;;;12.45;72.56;99187.06;4979826;28;45335;-49
2021/12/28 08:13:30;;;;;;;;;3.00;1.50;;;;;12.42;73.18;99184.00;4997569;28;45240;-54
2021/12/28 08:15:56;;;;;;;;;1.25;0.25;;;;;12.21;73.23;99150.81;4998128;28;45549;-52
2021/12/28 08:18:22;;;;;;;;;4.50;3.50;;;;;12.42;73.52;99197.75;4979942;28;46226;-54
2021/12/28 08:20:47;;;;;;;;;2.50;1.00;;;;;12.42;73.93;99200.50;4997570;28;45257;-58
2021/12/28 08:23:13;;;;;;;;;2.00;1.00;;;;;12.43;75.04;99213.19;4997311;28;45533;-52
2021/12/28 08:25:38;;;;;;;;;0.00;0.00;;;;;12.36;75.74;99212.56;4997418;28;45380;-54
2021/12/28 08:28:06;;;;;;;;;0.50;0.50;;;;;12.35;76.42;99220.00;4997555;28;45599;-57
2021/12/28 08:30:34;;;;;;;;;1.20;1.00;;;;;12.31;76.15;99208.69;4993795;28;45524;-55
2021/12/28 08:33:03;;;;;;;;;0.40;0.40;;;;;12.34;76.69;99219.16;4995063;28;45859;-57
2021/12/28 08:35:29;;;;;;;;;0.00;0.00;;;;;12.29;77.09;99221.88;4979057;28;45707;-58
2021/12/28 08:37:54;;;;;;;;;3.50;1.00;;;;;12.27;77.23;99226.78;4992611;28;45967;-55
2021/12/28 08:40:20;;;;;;;;;1.75;1.00;;;;;11.93;76.98;99191.22;4978841;28;45372;-52
2021/12/28 08:42:46;;;;;;;;;0.25;0.00;;;;;12.25;77.46;99252.91;5002964;28;45836;-53
2021/12/28 08:45:12;;;;;;;;;2.25;0.00;;;;;12.22;77.71;99254.25;4979361;28;45440;-56
2021/12/28 08:47:37;;;;;;;;;4.50;2.75;;;;;12.21;77.26;99252.59;4980448;28;45693;-55
2021/12/28 08:50:03;;;;;;;;;1.00;0.00;;;;;11.76;77.32;99197.66;4973042;28;45796;-57
2021/12/28 08:52:28;;;;;;;;;1.00;1.00;;;;;12.17;77.42;99268.78;4979390;28;45393;-57
2021/12/28 08:54:54;;;;;;;;;0.00;0.00;;;;;12.10;77.78;99257.16;4981417;28;45551;-51
2021/12/28 08:57:20;;;;;;;;;0.00;0.00;;;;;12.11;77.52;99256.06;4992527;28;46524;-59
2021/12/28 08:59:46;;;;;;;;;3.00;1.00;;;;;12.13;77.02;99255.81;4992469;28;45479;-53
2021/12/28 09:02:12;;;;;;;;;1.00;1.00;;;;;12.14;77.29;99258.31;4974251;28;45743;-51
2021/12/28 09:04:42;;;;;;;;;1.00;1.00;;;;;12.13;77.03;99259.41;4974810;28;45694;-57
2021/12/28 09:07:08;;;;;;;;;0.00;0.00;;;;;12.15;76.79;99248.97;4990953;28;45676;-57
2021/12/28 09:09:34;;;;;;;;;1.00;1.00;;;;;12.21;76.76;99244.34;4991861;28;45384;-57
2021/12/28 09:11:59;;;;;;;;;2.00;0.25;;;;;12.06;75.83;99240.34;4992388;28;45653;-51
2021/12/28 09:14:25;;;;;;;;;0.00;0.00;;;;;12.20;75.23;99260.03;4974686;28;45445;-52
2021/12/28 09:16:50;;;;;;;;;1.25;1.00;;;;;12.20;75.46;99260.03;4991326;28;46627;-54
2021/12/28 09:19:16;;;;;;;;;3.25;1.00;;;;;12.23;73.82;99277.94;4991375;28;45502;-57
2021/12/28 09:21:41;;;;;;;;;0.00;0.00;;;;;12.24;73.03;99267.75;4992229;28;45387;-55
2021/12/28 09:24:07;;;;;;;;;3.75;1.00;;;;;12.27;73.02;99267.25;4991635;28;45854;-57
2021/12/28 09:26:34;;;;;;;;;6.00;1.75;;;;;12.25;71.81;99256.50;4993154;28;46946;-55
2021/12/28 09:28:59;;;;;;;;;1.60;0.40;;;;;12.26;71.36;99269.16;4977749;28;45843;-56
2021/12/28 09:31:25;;;;;;;;;1.50;1.50;;;;;12.27;70.41;99270.81;4975744;28;45428;-56
2021/12/28 09:33:51;;;;;;;;;1.25;0.00;;;;;12.31;69.40;99282.13;4983645;28;46160;-56
2021/12/28 09:36:17;;;;;;;;;4.75;4.25;;;;;12.30;69.89;99273.06;5011399;28;45979;-51
2021/12/28 09:38:43;;;;;;;;;6.60;1.60;;;;;12.31;68.81;99268.38;5010752;28;45415;-52
2021/12/28 09:41:09;;;;;;;;;2.00;0.00;;;;;12.33;68.73;99266.19;4993564;28;45686;-55
2021/12/28 09:43:35;;;;;;;;;4.25;1.50;;;;;12.37;68.54;99277.53;5005866;28;45486;-58
2021/12/28 09:46:01;;;;;;;;;2.80;1.80;;;;;12.39;68.35;99284.41;5011082;28;45950;-60
2021/12/28 09:48:27;;;;;;;;;2.00;1.00;;;;;12.39;67.27;99280.81;4993204;28;45371;-58
2021/12/28 09:50:52;;;;;;;;;2.75;0.50;;;;;12.34;66.16;99290.69;4993698;28;45519;-61
2021/12/28 09:53:18;;;;;;;;;2.00;2.00;;;;;12.32;65.07;99286.53;4992525;28;45486;-63
2021/12/28 09:55:43;;;;;;;;;2.00;2.00;;;;;12.32;64.48;99292.03;4997318;28;46709;-60
2021/12/28 09:58:09;;;;;;;;;13.00;7.00;;;;;12.33;65.22;99294.53;4990812;28;45443;-56
2021/12/28 10:00:35;;;;;;;;;16.50;11.25;;;;;12.15;64.82;99286.63;4990947;28;45423;-63
2021/12/28 10:03:01;;;;;;;;;1.00;1.00;;;;;12.37;63.75;99307.78;4991534;28;45818;-60
2021/12/28 10:05:26;;;;;;;;;4.25;3.50;;;;;12.35;61.70;99308.03;4973058;28;47624;-58
2021/12/28 10:07:57;;;;;;;;;3.75;3.00;;;;;12.32;63.20;99297.53;4955631;28;46509;-64
2021/12/28 10:10:26;;;;;;;;;4.40;2.00;;;;;12.28;61.25;99288.97;4991211;28;45470;-55
2021/12/28 10:12:55;;;;;;;;;3.20;2.60;;;;;12.34;61.35;99311.88;4989943;28;45774;-58
2021/12/28 10:15:23;;;;;;;;;1.60;1.40;;;;;12.36;61.72;99323.44;4990225;28;46602;-56
2021/12/28 10:17:49;;;;;;;;;5.00;2.20;;;;;12.37;61.53;99321.53;4990860;28;45690;-58
2021/12/28 10:20:23;;;;;;;;;4.00;1.00;;;;;12.38;61.38;99318.50;4973935;28;45801;-61
2021/12/28 10:22:53;;;;;;;;;2.60;1.40;;;;;12.16;61.58;99300.13;4974000;28;45490;-59
2021/12/28 10:25:21;;;;;;;;;3.40;1.80;;;;;12.36;62.00;99341.84;4982184;28;46009;-60
2021/12/28 10:27:49;;;;;;;;;3.00;2.00;;;;;12.36;61.51;99341.84;4991656;28;45488;-59
2021/12/28 10:30:21;;;;;;;;;4.80;1.60;;;;;12.41;61.92;99342.78;4987579;28;45460;-58
2021/12/28 10:32:48;;;;;;;;;2.20;2.20;;;;;12.17;60.61;99295.47;4981009;28;45588;-60
2021/12/28 10:35:22;;;;;;;;;4.60;3.80;;;;;12.29;61.59;99320.06;5000111;28;48813;-58
2021/12/28 10:37:51;;;;;;;;;6.00;4.00;;;;;12.43;61.95;99337.00;5010988;28;45544;-62
2021/12/28 10:40:25;;;;;;;;;5.80;2.00;;;;;12.41;61.40;99339.16;5011522;28;45770;-61
2021/12/28 10:43:03;;;;;;;;;4.40;4.00;;;;;12.33;60.78;99329.47;5011229;28;45520;-61
2021/12/28 10:45:42;;;;;;;;;2.80;2.40;;;;;12.20;61.89;99305.94;4991058;28;45925;-59
2021/12/28 10:48:39;;;;;;;;;3.40;2.60;;;;;12.47;61.40;99357.41;4987216;28;45826;-61
2021/12/28 10:51:09;;;;;;;;;4.20;3.80;;;;;12.22;61.20;99316.69;4971231;28;45534;-53
2021/12/28 10:53:59;;;;;;;;;5.60;2.00;;;;;12.41;61.59;99325.41;4971930;28;45752;-58
2021/12/28 10:56:26;;;;;;;;;2.40;1.00;;;;;12.37;61.05;99316.03;4978507;28;48200;-56
2021/12/28 10:58:51;;;;;;;;;3.80;2.40;;;;;12.56;62.01;99346.75;4970589;28;45448;-61
2021/12/28 11:01:27;;;;;;;;;5.25;3.00;;;;;12.55;62.24;99340.41;4971608;28;45552;-57
2021/12/28 11:03:55;;;;;;;;;6.40;4.00;;;;;12.54;60.57;99335.19;5003272;28;45467;-55
2021/12/28 11:06:27;;;;;;;;;6.40;2.20;;;;;12.70;60.91;99363.72;4969937;28;46273;-54
2021/12/28 11:08:58;;;;;;;;;4.40;3.00;;;;;12.61;60.32;99352.31;4984993;28;45516;-61
2021/12/28 11:11:24;;;;;;;;;6.00;3.00;;;;;12.68;62.19;99369.47;4989935;28;45973;-57
2021/12/28 11:14:01;;;;;;;;;4.20;2.20;;;;;12.69;61.88;99362.88;4991512;28;45880;-51
2021/12/28 11:16:27;;;;;;;;;4.20;3.40;;;;;12.77;62.03;99364.31;4990595;28;45995;-54
2021/12/28 11:18:54;;;;;;;;;2.00;0.80;;;;;12.83;60.85;99366.03;4990964;28;45437;-60
2021/12/28 11:21:22;;;;;;;;;5.60;1.80;;;;;12.89;60.70;99364.16;5004889;28;45616;-58
2021/12/28 11:23:50;;;;;;;;;2.80;2.80;;;;;12.96;60.97;99361.19;4989130;28;45473;-55
2021/12/28 11:26:19;;;;;;;;;4.00;4.00;;;;;13.08;60.88;99380.31;4972515;28;47569;-54
2021/12/28 11:29:21;;;;;;;;;5.60;4.00;;;;;13.19;59.98;99379.31;4990607;28;45867;-52
2021/12/28 11:31:50;;;;;;;;;4.80;4.00;;;;;13.26;59.35;99385.41;4971264;28;45468;-55
2021/12/28 11:34:29;;;;;;;;;3.00;1.00;;;;;14.18;56.97;99413.03;4960429;28;45362;-54